Time;durP1;ratioP1;P1;durP2;ratioP2;P2;SDS_P1;SDS_P2;PMS_P1;PMS_P2;Temp;Humidity;BMP_temperature;BMP_pressure;BME280_temperature;BME280_humidity;BME280_pressure;Samples;Min_cycle;Max_cycle;Signal;HPM_P1;HPM_P2
2020/12/27 00:02:14;;;;;;;14.50;9.45;;;128.30;1843.20;;;;;;5072370;28;20386;-60
2020/12/27 00:04:40;;;;;;;14.57;8.60;;;128.40;1817.60;;;;;;5071793;28;20021;-58
2020/12/27 00:07:08;;;;;;;16.08;8.63;;;128.60;1817.60;;;;;;5070900;28;20174;-60
2020/12/27 00:09:38;;;;;;;15.73;9.55;;;128.50;1792.00;;;;;;5066677;28;20021;-61
2020/12/27 00:12:05;;;;;;;14.98;8.82;;;128.30;1792.00;;;;;;5070588;28;20600;-61
2020/12/27 00:14:31;;;;;;;15.45;8.63;;;128.20;1843.20;;;;;;5070897;28;20020;-60
2020/12/27 00:17:05;;;;;;;14.63;8.57;;;128.10;1843.20;;;;;;5069872;28;20051;-62
2020/12/27 00:19:34;;;;;;;14.50;9.05;;;128.10;1868.80;;;;;;5069997;28;20031;-58
2020/12/27 00:21:59;;;;;;;;;;;128.10;1843.20;;;;;;5070985;28;20025;-62
2020/12/27 00:24:25;;;;;;;16.02;8.63;;;128.00;1868.80;;;;;;5070263;28;19923;-62
2020/12/27 00:26:51;;;;;;;16.45;9.02;;;103.30;1843.20;;;;;;5070216;28;20020;-62
2020/12/27 00:29:17;;;;;;;15.32;9.25;;;128.00;1868.80;;;;;;5070615;28;20035;-62
2020/12/27 00:31:43;;;;;;;13.93;8.23;;;128.10;1843.20;;;;;;5068957;28;20378;-62
2020/12/27 00:34:09;;;;;;;13.73;7.80;;;128.00;1843.20;;;;;;5070056;28;20058;-64
2020/12/27 00:36:35;;;;;;;14.43;8.57;;;128.00;1868.80;;;;;;5069545;28;20465;-66
2020/12/27 00:39:05;;;;;;;15.60;8.18;;;128.10;1868.80;;;;;;5035629;28;20474;-71
2020/12/27 00:41:31;;;;;;;16.73;9.20;;;128.20;1868.80;;;;;;5067889;28;20027;-69
2020/12/27 00:43:57;;;;;;;17.70;10.90;;;128.10;1868.80;;;;;;5069796;28;20045;-63
2020/12/27 00:46:22;;;;;;;20.10;10.07;;;128.10;1868.80;;;;;;5070555;28;20437;-66
2020/12/27 00:48:48;;;;;;;17.77;9.38;;;128.10;1868.80;;;;;;5070846;28;20431;-62
2020/12/27 00:51:25;;;;;;;15.88;9.18;;;103.20;1843.20;;;;;;5070192;28;20234;-63
2020/12/27 00:53:51;;;;;;;18.67;10.55;;;103.30;1843.20;;;;;;5069927;28;20025;-62
2020/12/27 00:56:17;;;;;;;19.75;10.90;;;103.30;1868.80;;;;;;5070814;28;20077;-61
2020/12/27 00:58:43;;;;;;;19.40;11.23;;;128.00;1894.40;;;;;;5070909;28;20039;-63
2020/12/27 01:01:13;;;;;;;14.93;8.98;;;103.30;1843.20;;;;;;5070322;28;20021;-62
2020/12/27 01:03:42;;;;;;;14.77;8.60;;;128.10;1868.80;;;;;;5071283;28;20342;-66
2020/12/27 01:06:08;;;;;;;13.68;8.68;;;128.10;1868.80;;;;;;5072219;28;20114;-61
2020/12/27 01:08:34;;;;;;;13.82;7.80;;;128.20;1868.80;;;;;;5071204;28;20021;-62
2020/12/27 01:11:01;;;;;;;15.15;8.55;;;128.40;1843.20;;;;;;5071323;28;20028;-61
2020/12/27 01:13:27;;;;;;;12.75;7.88;;;103.30;1817.60;;;;;;5070424;28;20017;-67
2020/12/27 01:15:53;;;;;;;16.67;9.43;;;103.10;1868.80;;;;;;5070460;28;20118;-63
2020/12/27 01:18:18;;;;;;;15.38;9.00;;;103.10;1868.80;;;;;;5051561;28;20037;-62
2020/12/27 01:20:44;;;;;;;18.13;10.00;;;103.20;1868.80;;;;;;5070968;28;20428;-63
2020/12/27 01:23:10;;;;;;;18.15;8.85;;;128.00;1894.40;;;;;;5070550;28;20033;-69
2020/12/27 01:25:35;;;;;;;13.73;8.30;;;128.10;1868.80;;;;;;5070267;28;20037;-64
2020/12/27 01:28:02;;;;;;;12.77;8.05;;;103.20;1868.80;;;;;;5069820;28;20036;-63
2020/12/27 01:30:27;;;;;;;13.70;8.45;;;103.10;1894.40;;;;;;5070690;28;20028;-62
2020/12/27 01:32:53;;;;;;;14.30;7.72;;;103.00;1920.00;;;;;;5069746;28;20027;-60
2020/12/27 01:35:19;;;;;;;14.95;8.48;;;103.20;1945.60;;;;;;5070106;28;20098;-65
2020/12/27 01:37:45;;;;;;;13.48;7.50;;;103.10;1945.60;;;;;;5068689;28;20028;-65
2020/12/27 01:40:10;;;;;;;13.30;8.48;;;103.20;1920.00;;;;;;5070745;28;20025;-67
2020/12/27 01:42:36;;;;;;;14.55;8.60;;;103.10;1920.00;;;;;;5053228;28;20058;-58
2020/12/27 01:45:03;;;;;;;14.13;8.10;;;103.10;1945.60;;;;;;5071906;28;20050;-58
2020/12/27 01:47:33;;;;;;;12.20;8.35;;;103.20;1971.20;;;;;;5071961;28;20102;-57
2020/12/27 01:49:59;;;;;;;14.90;8.52;;;103.20;1971.20;;;;;;5072050;28;20040;-58
2020/12/27 01:52:25;;;;;;;14.00;8.25;;;102.80;1996.80;;;;;;5071560;28;20489;-58
2020/12/27 01:54:51;;;;;;;14.10;7.78;;;102.60;1996.80;;;;;;5071849;28;20115;-58
2020/12/27 01:57:21;;;;;;;15.75;8.85;;;102.70;2048.00;;;;;;5071740;28;20119;-58
2020/12/27 01:59:47;;;;;;;13.98;8.45;;;102.70;2073.60;;;;;;5071402;28;20032;-58
2020/12/27 02:02:14;;;;;;;14.75;8.73;;;102.90;2048.00;;;;;;5070853;28;20035;-59
2020/12/27 02:04:40;;;;;;;16.63;9.40;;;102.90;2048.00;;;;;;5070184;28;20170;-58
2020/12/27 02:07:08;;;;;;;13.88;8.52;;;103.10;2022.40;;;;;;5071390;28;20448;-58
2020/12/27 02:09:36;;;;;;;14.77;9.23;;;102.70;1996.80;;;;;;5070713;28;20470;-58
2020/12/27 02:12:09;;;;;;;14.10;8.15;;;102.90;2048.00;;;;;;5071066;28;20020;-58
2020/12/27 02:14:36;;;;;;;14.10;7.68;;;102.90;1996.80;;;;;;5071215;28;20491;-59
2020/12/27 02:17:03;;;;;;;14.63;8.25;;;102.70;1971.20;;;;;;5074013;28;20051;-59
2020/12/27 02:19:29;;;;;;;11.43;7.63;;;102.50;2048.00;;;;;;5071786;28;20035;-59
2020/12/27 02:21:54;;;;;;;15.23;8.65;;;102.70;2048.00;;;;;;5074092;28;20025;-59
2020/12/27 02:24:20;;;;;;;13.75;8.65;;;102.80;2048.00;;;;;;5074200;28;20036;-60
2020/12/27 02:27:01;;;;;;;12.30;7.97;;;102.90;2048.00;;;;;;5074824;28;20454;-59
2020/12/27 02:29:28;;;;;;;14.02;8.25;;;102.90;2022.40;;;;;;5074828;28;20028;-58
2020/12/27 02:31:55;;;;;;;15.10;8.80;;;103.00;2022.40;;;;;;5074547;28;20024;-58
2020/12/27 02:34:21;;;;;;;19.02;9.35;;;103.10;1996.80;;;;;;5075094;28;20059;-58
2020/12/27 02:36:47;;;;;;;14.07;7.93;;;103.00;2022.40;;;;;;5074937;28;20078;-58
2020/12/27 02:39:15;;;;;;;15.75;9.25;;;103.20;1996.80;;;;;;5074746;28;20028;-58
2020/12/27 02:41:41;;;;;;;14.87;9.17;;;103.10;1996.80;;;;;;5074567;28;20048;-58
2020/12/27 02:44:08;;;;;;;15.52;8.70;;;103.10;1996.80;;;;;;5074493;28;20481;-58
2020/12/27 02:46:34;;;;;;;16.70;9.45;;;103.10;1996.80;;;;;;5074828;28;20025;-57
2020/12/27 02:49:00;;;;;;;14.48;8.50;;;103.10;1996.80;;;;;;5074916;28;20067;-58
2020/12/27 02:51:26;;;;;;;13.88;8.98;;;103.10;2022.40;;;;;;5074727;28;20032;-58
2020/12/27 02:53:53;;;;;;;17.63;9.85;;;103.20;2022.40;;;;;;5074699;28;20036;-58
2020/12/27 02:56:23;;;;;;;14.15;9.27;;;103.20;1996.80;;;;;;5074309;28;20111;-57
2020/12/27 02:58:50;;;;;;;17.20;9.68;;;103.20;1996.80;;;;;;5074557;28;20450;-58
2020/12/27 03:01:16;;;;;;;15.18;9.10;;;103.10;2022.40;;;;;;5074260;28;20020;-58
2020/12/27 03:03:43;;;;;;;14.93;8.82;;;103.10;2022.40;;;;;;5074395;28;20123;-58
2020/12/27 03:06:09;;;;;;;16.00;9.50;;;103.00;2048.00;;;;;;5073963;28;20052;-58
2020/12/27 03:08:34;;;;;;;17.15;8.82;;;103.10;2022.40;;;;;;5074486;28;20043;-58
2020/12/27 03:11:00;;;;;;;16.40;8.73;;;103.00;2022.40;;;;;;5056208;28;20033;-58
2020/12/27 03:13:27;;;;;;;15.20;8.63;;;103.10;2022.40;;;;;;5073897;28;20115;-58
2020/12/27 03:15:54;;;;;;;13.00;8.57;;;103.00;2022.40;;;;;;5072941;28;20390;-59
2020/12/27 03:18:20;;;;;;;14.52;9.18;;;103.00;2048.00;;;;;;5071976;28;20466;-58
2020/12/27 03:20:46;;;;;;;16.25;9.55;;;103.00;2022.40;;;;;;5074263;28;20021;-58
2020/12/27 03:23:12;;;;;;;17.27;10.23;;;103.00;2022.40;;;;;;5073608;28;20044;-58
2020/12/27 03:25:38;;;;;;;16.25;10.50;;;103.00;2048.00;;;;;;5073467;28;20149;-58
2020/12/27 03:28:03;;;;;;;15.60;9.40;;;102.90;2022.40;;;;;;5074103;28;20032;-58
2020/12/27 03:30:29;;;;;;;16.10;9.38;;;102.90;2048.00;;;;;;5074085;28;20016;-58
2020/12/27 03:32:55;;;;;;;14.85;8.98;;;102.90;2048.00;;;;;;5072275;28;20028;-58
2020/12/27 03:35:20;;;;;;;15.23;8.70;;;103.00;2048.00;;;;;;5074110;28;20526;-58
2020/12/27 03:37:46;;;;;;;13.93;8.63;;;103.00;2022.40;;;;;;5073633;28;20086;-58
2020/12/27 03:40:12;;;;;;;14.98;8.85;;;103.00;2022.40;;;;;;5055966;28;20466;-59
2020/12/27 03:42:38;;;;;;;14.45;9.35;;;103.00;2022.40;;;;;;5073402;28;20060;-58
2020/12/27 03:45:04;;;;;;;16.45;10.00;;;103.00;2048.00;;;;;;5073582;28;20111;-58
2020/12/27 03:47:29;;;;;;;18.52;10.38;;;103.10;2022.40;;;;;;5073267;28;20031;-58
2020/12/27 03:49:55;;;;;;;16.25;9.43;;;103.20;2022.40;;;;;;5073571;28;20422;-58
2020/12/27 03:52:21;;;;;;;19.48;9.95;;;103.20;2022.40;;;;;;5073517;28;20047;-59
2020/12/27 03:54:46;;;;;;;17.88;9.80;;;103.20;2022.40;;;;;;5073948;28;20029;-59
2020/12/27 03:57:12;;;;;;;14.30;8.68;;;103.20;2022.40;;;;;;5073060;28;20025;-59
2020/12/27 03:59:38;;;;;;;18.75;11.07;;;103.20;2022.40;;;;;;5073427;28;20032;-58
2020/12/27 04:02:04;;;;;;;17.60;10.45;;;103.30;2022.40;;;;;;5073934;28;20375;-59
2020/12/27 04:04:29;;;;;;;17.30;10.07;;;103.20;2022.40;;;;;;5072826;28;20463;-59
2020/12/27 04:06:55;;;;;;;16.95;9.30;;;103.30;2022.40;;;;;;5072857;28;20040;-59
2020/12/27 04:09:21;;;;;;;15.40;9.45;;;103.20;2022.40;;;;;;5073318;28;20028;-59
2020/12/27 04:11:46;;;;;;;17.13;10.68;;;103.20;2022.40;;;;;;5072887;28;20102;-59
2020/12/27 04:14:12;;;;;;;23.67;14.60;;;103.10;2048.00;;;;;;5072841;28;20031;-60
2020/12/27 04:16:38;;;;;;;29.27;17.52;;;103.10;2022.40;;;;;;5072878;28;20474;-59
2020/12/27 04:19:04;;;;;;;24.75;15.85;;;103.10;2048.00;;;;;;5073054;28;20522;-60
2020/12/27 04:21:30;;;;;;;23.85;14.93;;;103.20;2022.40;;;;;;5072045;28;20127;-60
2020/12/27 04:23:55;;;;;;;23.60;14.65;;;103.10;2048.00;;;;;;5072831;28;20119;-59
2020/12/27 04:26:22;;;;;;;24.70;14.55;;;103.10;2048.00;;;;;;5072497;28;20025;-59
2020/12/27 04:28:48;;;;;;;21.00;13.23;;;103.20;2048.00;;;;;;5072803;28;20040;-59
2020/12/27 04:31:20;;;;;;;21.35;11.57;;;103.30;2022.40;;;;;;5072872;28;20032;-59
2020/12/27 04:33:49;;;;;;;20.20;11.73;;;128.00;2048.00;;;;;;5072953;28;20094;-59
2020/12/27 04:36:16;;;;;;;19.20;10.95;;;103.20;2048.00;;;;;;5072668;28;20035;-58
2020/12/27 04:38:42;;;;;;;20.52;12.13;;;103.30;2022.40;;;;;;5071864;28;20108;-59
2020/12/27 04:41:08;;;;;;;19.85;11.95;;;103.00;2022.40;;;;;;5072803;28;20468;-59
2020/12/27 04:43:35;;;;;;;17.00;10.35;;;103.10;2048.00;;;;;;5072409;28;20039;-59
2020/12/27 04:46:04;;;;;;;18.83;11.75;;;103.10;2048.00;;;;;;5072228;28;20025;-59
2020/12/27 04:48:31;;;;;;;18.65;11.35;;;103.00;2048.00;;;;;;5072669;28;20124;-59
2020/12/27 04:51:03;;;;;;;19.42;10.80;;;103.10;2048.00;;;;;;5072403;28;20070;-59
2020/12/27 04:53:28;;;;;;;19.33;11.85;;;103.10;2048.00;;;;;;5072694;28;20090;-59
2020/12/27 04:55:56;;;;;;;21.00;11.80;;;103.10;2048.00;;;;;;5072441;28;20017;-59
2020/12/27 04:58:22;;;;;;;23.60;13.05;;;103.30;2022.40;;;;;;5072432;28;20036;-59
2020/12/27 05:00:51;;;;;;;18.95;11.65;;;103.30;2022.40;;;;;;5072521;28;20039;-59
2020/12/27 05:03:16;;;;;;;20.88;12.60;;;103.30;1996.80;;;;;;5072363;28;20383;-59
2020/12/27 05:05:43;;;;;;;24.95;13.13;;;103.30;2022.40;;;;;;5072266;28;20040;-59
2020/12/27 05:08:09;;;;;;;22.65;12.50;;;103.30;1996.80;;;;;;5070711;28;20053;-59
2020/12/27 05:10:40;;;;;;;23.17;13.57;;;128.00;2022.40;;;;;;5072624;28;20021;-60
2020/12/27 05:13:07;;;;;;;19.77;11.80;;;128.00;2022.40;;;;;;5072015;28;20028;-59
2020/12/27 05:15:35;;;;;;;20.58;11.88;;;128.00;2022.40;;;;;;5072263;28;20466;-59
2020/12/27 05:18:00;;;;;;;20.48;12.35;;;103.30;1996.80;;;;;;5054146;28;20025;-59
2020/12/27 05:20:27;;;;;;;22.10;11.90;;;128.10;1996.80;;;;;;5072277;28;20024;-59
2020/12/27 05:23:02;;;;;;;20.02;11.68;;;128.00;1996.80;;;;;;5072097;28;20037;-59
2020/12/27 05:25:32;;;;;;;22.88;12.40;;;128.10;1996.80;;;;;;5072020;28;20112;-59
2020/12/27 05:28:06;;;;;;;20.70;11.90;;;128.00;1996.80;;;;;;5072119;28;20025;-59
2020/12/27 05:30:32;;;;;;;20.48;12.45;;;128.10;2176.00;;;;;;5072263;28;20078;-60
2020/12/27 05:32:58;;;;;;;23.55;12.23;;;128.00;1996.80;;;;;;5071905;28;20043;-59
2020/12/27 05:35:24;;;;;;;20.45;11.68;;;128.00;1996.80;;;;;;5072094;28;20352;-59
2020/12/27 05:37:50;;;;;;;20.35;11.80;;;103.30;1971.20;;;;;;5071956;28;20039;-58
2020/12/27 05:40:17;;;;;;;19.48;11.90;;;103.30;1996.80;;;;;;5072251;28;20468;-60
2020/12/27 05:42:47;;;;;;;24.02;13.43;;;128.00;1996.80;;;;;;5071761;28;20036;-58
2020/12/27 05:45:18;;;;;;;18.95;10.98;;;128.10;1996.80;;;;;;5071757;28;20020;-59
2020/12/27 05:47:46;;;;;;;20.52;11.30;;;128.00;1996.80;;;;;;5071878;28;20107;-60
2020/12/27 05:50:17;;;;;;;19.38;12.25;;;128.00;1996.80;;;;;;5074635;28;20023;-60
2020/12/27 05:52:47;;;;;;;18.75;11.07;;;128.10;1996.80;;;;;;5075575;28;20474;-58
2020/12/27 05:55:21;;;;;;;18.25;11.48;;;128.20;1996.80;;;;;;5075856;28;20071;-58
2020/12/27 05:57:54;;;;;;;18.80;10.80;;;128.10;1971.20;;;;;;5075717;28;20050;-60
2020/12/27 06:00:24;;;;;;;18.58;10.85;;;103.30;1971.20;;;;;;5075538;28;20013;-60
2020/12/27 06:02:57;;;;;;;20.98;11.15;;;103.30;1971.20;;;;;;5075209;28;20367;-58
2020/12/27 06:05:53;;;;;;;16.30;10.27;;;128.00;2022.40;;;;;;5075213;28;20040;-59
2020/12/27 06:08:29;;;;;;;20.10;11.45;;;103.30;1971.20;;;;;;5075302;28;20024;-59
2020/12/27 06:11:33;;;;;;;20.10;10.60;;;103.30;1971.20;;;;;;5075043;28;20098;-58
2020/12/27 06:13:58;;;;;;;20.88;11.93;;;128.00;2022.40;;;;;;5043442;28;20028;-60
2020/12/27 06:16:36;;;;;;;20.10;11.25;;;128.30;1996.80;;;;;;5075130;28;20043;-59
2020/12/27 06:19:25;;;;;;;23.30;11.45;;;128.50;1920.00;;;;;;5075512;28;20052;-59
2020/12/27 06:22:03;;;;;;;20.58;12.23;;;128.40;1971.20;;;;;;5075074;28;20371;-58
2020/12/27 06:24:29;;;;;;;;;;;128.60;1920.00;;;;;;5063535;28;20029;-58
2020/12/27 06:26:56;;;;;;;22.30;11.32;;;128.60;1920.00;;;;;;5075298;28;19939;-58
2020/12/27 06:29:23;;;;;;;22.52;12.48;;;128.60;1920.00;;;;;;5075368;28;20067;-58
2020/12/27 06:31:50;;;;;;;22.63;12.95;;;128.40;1920.00;;;;;;5074820;28;20111;-58
2020/12/27 06:34:17;;;;;;;21.48;11.98;;;128.40;1945.60;;;;;;5074950;28;20012;-58
2020/12/27 06:36:42;;;;;;;19.88;12.38;;;128.40;1945.60;;;;;;5074920;28;20024;-58
2020/12/27 06:39:28;;;;;;;23.13;13.75;;;128.40;1945.60;;;;;;5074730;28;20027;-58
2020/12/27 06:42:18;;;;;;;21.45;14.23;;;128.30;1945.60;;;;;;5075240;28;20485;-59
2020/12/27 06:44:44;;;;;;;20.90;12.27;;;128.40;1971.20;;;;;;5074680;28;20071;-59
2020/12/27 06:47:11;;;;;;;27.17;13.45;;;128.50;1920.00;;;;;;5074518;28;20023;-58
2020/12/27 06:49:37;;;;;;;23.10;12.60;;;128.20;1971.20;;;;;;5074805;28;20103;-59
2020/12/27 06:52:24;;;;;;;28.00;13.75;;;128.00;1996.80;;;;;;5074639;28;20031;-58
2020/12/27 06:54:51;;;;;;;23.98;13.77;;;128.20;1996.80;;;;;;5074708;28;20017;-58
2020/12/27 06:57:48;;;;;;;22.00;12.93;;;128.10;2022.40;;;;;;5074971;28;20028;-59
2020/12/27 07:00:27;;;;;;;24.60;14.30;;;128.20;2022.40;;;;;;5062167;28;20130;-58
2020/12/27 07:03:06;;;;;;;19.55;12.23;;;128.10;2022.40;;;;;;5073746;28;20540;-58
2020/12/27 07:05:36;;;;;;;23.95;14.35;;;128.00;2048.00;;;;;;5074368;28;20044;-59
2020/12/27 07:08:04;;;;;;;24.30;13.23;;;128.20;2048.00;;;;;;5073863;28;20475;-58
2020/12/27 07:10:32;;;;;;;20.88;12.63;;;128.20;2048.00;;;;;;5074577;28;20052;-59
2020/12/27 07:13:09;;;;;;;23.73;13.57;;;128.30;2048.00;;;;;;5074222;28;20103;-58
2020/12/27 07:15:35;;;;;;;21.30;13.30;;;128.40;2048.00;;;;;;5074226;28;20021;-59
2020/12/27 07:18:08;;;;;;;23.52;13.98;;;128.40;2022.40;;;;;;5074245;28;20032;-58
2020/12/27 07:20:36;;;;;;;138.45;80.70;;;128.10;2048.00;;;;;;5055883;28;20012;-58
2020/12/27 07:23:10;;;;;;;71.55;42.10;;;128.30;2022.40;;;;;;5073594;28;20036;-59
2020/12/27 07:25:40;;;;;;;48.47;30.98;;;128.40;2048.00;;;;;;5056167;28;20025;-59
2020/12/27 07:28:07;;;;;;;37.70;27.95;;;128.50;2048.00;;;;;;5073437;28;20493;-58
2020/12/27 07:30:34;;;;;;;33.60;21.23;;;128.60;2022.40;;;;;;5073765;28;20078;-58
2020/12/27 07:33:07;;;;;;;34.83;18.65;;;128.60;2022.40;;;;;;5073631;28;20471;-58
2020/12/27 07:35:34;;;;;;;30.70;19.45;;;128.60;2022.40;;;;;;5073503;28;20060;-59
2020/12/27 07:38:01;;;;;;;26.73;17.25;;;128.50;2022.40;;;;;;5073860;28;20035;-59
2020/12/27 07:40:32;;;;;;;25.88;17.05;;;128.50;2022.40;;;;;;5073511;28;20142;-59
2020/12/27 07:42:59;;;;;;;26.38;16.85;;;128.60;2022.40;;;;;;5073819;28;20040;-59
2020/12/27 07:45:25;;;;;;;26.48;17.17;;;128.70;2022.40;;;;;;5073584;28;20110;-59
2020/12/27 07:47:51;;;;;;;27.13;16.52;;;128.70;2022.40;;;;;;5073323;28;20032;-58
2020/12/27 07:50:18;;;;;;;29.67;16.45;;;128.70;1996.80;;;;;;5073230;28;20036;-58
2020/12/27 07:52:50;;;;;;;30.55;17.00;;;128.60;2022.40;;;;;;5055154;28;20035;-61
2020/12/27 07:55:26;;;;;;;26.50;16.10;;;128.50;2048.00;;;;;;5055124;28;20056;-60
2020/12/27 07:57:53;;;;;;;32.22;17.90;;;128.70;2022.40;;;;;;5072973;28;20022;-58
2020/12/27 08:00:27;;;;;;;28.13;15.77;;;128.80;2022.40;;;;;;5054681;28;20044;-60
2020/12/27 08:02:54;;;;;;;32.63;20.60;;;128.90;1996.80;;;;;;5054964;28;20047;-60
2020/12/27 08:05:20;;;;;;;34.80;18.83;;;153.60;1996.80;;;;;;5073158;28;20031;-59
2020/12/27 08:07:46;;;;;;;26.35;15.65;;;128.90;1996.80;;;;;;5054022;28;20028;-59
2020/12/27 08:10:13;;;;;;;22.85;14.75;;;153.70;1996.80;;;;;;5072950;28;20538;-59
2020/12/27 08:12:45;;;;;;;28.38;17.38;;;153.70;1996.80;;;;;;5071638;28;20111;-60
2020/12/27 08:15:11;;;;;;;31.50;18.33;;;153.60;1996.80;;;;;;5073033;28;20055;-61
2020/12/27 08:17:37;;;;;;;35.85;22.25;;;153.70;1996.80;;;;;;5072574;28;20059;-60
2020/12/27 08:20:03;;;;;;;37.25;25.20;;;153.70;1996.80;;;;;;5072437;28;20474;-59
2020/12/27 08:22:29;;;;;;;43.35;30.13;;;153.70;1996.80;;;;;;5072747;28;20090;-60
2020/12/27 08:25:12;;;;;;;37.45;26.60;;;153.90;1971.20;;;;;;5073338;28;20021;-58
2020/12/27 08:27:38;;;;;;;41.22;26.65;;;153.90;1971.20;;;;;;5053707;28;20650;-60
2020/12/27 08:30:05;;;;;;;36.15;25.45;;;153.90;1971.20;;;;;;5054893;28;20036;-60
2020/12/27 08:32:30;;;;;;;36.88;22.73;;;154.00;1971.20;;;;;;5072066;28;20024;-60
2020/12/27 08:34:56;;;;;;;33.22;22.15;;;153.90;1971.20;;;;;;5072289;28;20035;-61
2020/12/27 08:37:26;;;;;;;36.65;22.85;;;154.00;1971.20;;;;;;5072712;28;20032;-61
2020/12/27 08:40:02;;;;;;;36.17;22.88;;;154.20;1945.60;;;;;;5072674;28;20056;-59
2020/12/27 08:42:33;;;;;;;35.40;22.48;;;153.90;1971.20;;;;;;5072545;28;20051;-58
2020/12/27 08:45:04;;;;;;;34.05;19.90;;;154.10;1971.20;;;;;;5072355;28;20032;-58
2020/12/27 08:48:07;;;;;;;30.45;18.70;;;154.20;1945.60;;;;;;5072194;28;20065;-59
2020/12/27 08:50:37;;;;;;;32.40;18.60;;;154.20;1945.60;;;;;;5072638;28;20036;-58
2020/12/27 08:53:05;;;;;;;30.50;16.55;;;154.30;1945.60;;;;;;5072230;28;20039;-59
2020/12/27 08:55:31;;;;;;;28.42;16.42;;;154.30;1945.60;;;;;;5072223;28;20021;-59
2020/12/27 08:58:01;;;;;;;25.75;14.52;;;154.40;1945.60;;;;;;5072447;28;20029;-59
2020/12/27 09:00:36;;;;;;;24.55;14.07;;;154.50;2099.20;;;;;;5072471;28;20100;-59
2020/12/27 09:03:04;;;;;;;23.55;15.02;;;179.20;1894.40;;;;;;5054394;28;20115;-59
2020/12/27 09:05:34;;;;;;;19.10;10.45;;;179.40;1868.80;;;;;;5071299;28;20033;-61
2020/12/27 09:08:16;;;;;;;25.25;14.68;;;154.50;1868.80;;;;;;5054766;28;20091;-61
2020/12/27 09:10:42;;;;;;;19.23;9.35;;;179.20;1868.80;;;;;;5072369;28;20569;-61
2020/12/27 09:13:11;;;;;;;15.68;9.82;;;179.30;1843.20;;;;;;5070986;28;20035;-62
2020/12/27 09:15:46;;;;;;;16.87;10.47;;;179.50;1817.60;;;;;;5072300;28;20020;-62
2020/12/27 09:18:14;;;;;;;18.02;9.02;;;179.60;1792.00;;;;;;5054177;28;20257;-60
2020/12/27 09:20:43;;;;;;;19.55;10.68;;;179.50;1817.60;;;;;;5072173;28;20021;-60
2020/12/27 09:23:19;;;;;;;19.98;11.68;;;179.50;1817.60;;;;;;5034041;28;20041;-59
2020/12/27 09:26:13;;;;;;;18.50;11.18;;;179.50;1817.60;;;;;;5073215;28;20074;-59
2020/12/27 09:28:40;;;;;;;19.08;9.73;;;179.70;1792.00;;;;;;5075233;28;20074;-59
2020/12/27 09:31:11;;;;;;;17.55;9.98;;;179.60;1792.00;;;;;;5075650;28;20069;-61
2020/12/27 09:33:45;;;;;;;15.93;9.73;;;179.70;1792.00;;;;;;5056782;28;20040;-59
2020/12/27 09:36:11;;;;;;;15.25;9.25;;;179.50;1817.60;;;;;;5075665;28;20027;-59
2020/12/27 09:38:42;;;;;;;30.05;22.60;;;179.90;1792.00;;;;;;5075472;28;20081;-59
2020/12/27 09:41:15;;;;;;;18.70;11.07;;;179.80;1792.00;;;;;;5072700;28;20043;-58
2020/12/27 09:43:52;;;;;;;22.83;18.35;;;179.90;1792.00;;;;;;5075703;28;20028;-59
2020/12/27 09:46:44;;;;;;;24.02;19.38;;;180.00;1766.40;;;;;;5074940;28;20421;-59
2020/12/27 09:49:19;;;;;;;25.38;18.23;;;180.10;1740.80;;;;;;5075645;28;20013;-61
2020/12/27 09:51:45;;;;;;;133.25;104.32;;;204.90;1740.80;;;;;;5074597;28;20059;-61
2020/12/27 09:54:11;;;;;;;18.88;11.82;;;205.00;1715.20;;;;;;5076186;28;20056;-61
2020/12/27 09:56:41;;;;;;;16.35;11.70;;;205.20;1689.60;;;;;;5075371;28;20040;-60
2020/12/27 09:59:06;;;;;;;15.18;8.77;;;205.50;1689.60;;;;;;5075458;28;20378;-62
2020/12/27 10:01:32;;;;;;;16.15;10.02;;;205.50;1664.00;;;;;;5073904;28;20024;-61
2020/12/27 10:03:58;;;;;;;14.88;10.13;;;205.60;1638.40;;;;;;5075365;28;20406;-62
2020/12/27 10:06:23;;;;;;;13.48;8.35;;;230.40;1612.80;;;;;;5075286;28;20445;-60
2020/12/27 10:08:49;;;;;;;12.55;8.63;;;230.50;1612.80;;;;;;5075056;28;20020;-61
2020/12/27 10:11:15;;;;;;;12.43;7.93;;;205.70;1612.80;;;;;;5075453;28;20061;-61
2020/12/27 10:13:40;;;;;;;13.10;7.93;;;205.60;1612.80;;;;;;5075027;28;20020;-61
2020/12/27 10:16:06;;;;;;;11.38;6.97;;;205.60;1638.40;;;;;;5075352;28;20020;-63
2020/12/27 10:18:31;;;;;;;15.20;10.23;;;205.60;1612.80;;;;;;5074774;28;20360;-61
2020/12/27 10:20:57;;;;;;;11.63;7.60;;;205.50;1638.40;;;;;;5075400;28;20056;-63
2020/12/27 10:23:23;;;;;;;12.48;8.10;;;230.40;1612.80;;;;;;5075197;28;20033;-61
2020/12/27 10:25:48;;;;;;;16.40;11.80;;;230.50;1587.20;;;;;;5057131;28;20033;-61
2020/12/27 10:28:14;;;;;;;13.45;7.80;;;205.60;1612.80;;;;;;5074854;28;20092;-62
2020/12/27 10:30:40;;;;;;;10.25;8.07;;;205.70;1612.80;;;;;;5074844;28;20059;-61
2020/12/27 10:33:05;;;;;;;7.07;5.22;;;205.50;1638.40;;;;;;5074272;28;20017;-61
2020/12/27 10:35:31;;;;;;;5.95;3.90;;;205.40;1638.40;;;;;;5073874;28;20025;-61
2020/12/27 10:37:57;;;;;;;5.55;4.13;;;205.40;1612.80;;;;;;5073562;28;20513;-61
2020/12/27 10:40:22;;;;;;;9.40;6.10;;;205.50;1612.80;;;;;;5074438;28;20024;-61
2020/12/27 10:42:48;;;;;;;4.45;3.20;;;205.40;1638.40;;;;;;5074148;28;20470;-61
2020/12/27 10:45:14;;;;;;;27.77;25.05;;;205.60;1587.20;;;;;;5055993;28;20067;-61
2020/12/27 10:47:39;;;;;;;9.38;5.35;;;205.50;1612.80;;;;;;5073856;28;20012;-61
2020/12/27 10:50:05;;;;;;;28.58;25.98;;;205.50;1612.80;;;;;;5074175;28;20029;-61
2020/12/27 10:52:31;;;;;;;36.67;33.10;;;205.60;1561.60;;;;;;5074113;28;20032;-60
2020/12/27 10:54:56;;;;;;;13.73;12.25;;;205.60;1561.60;;;;;;5074032;28;20032;-61
2020/12/27 10:57:22;;;;;;;7.38;6.53;;;205.60;1587.20;;;;;;5073932;28;20024;-60
2020/12/27 10:59:47;;;;;;;5.22;2.85;;;205.40;1587.20;;;;;;5056027;28;20033;-61
2020/12/27 11:02:13;;;;;;;6.80;5.40;;;205.20;1612.80;;;;;;5073359;28;20020;-61
2020/12/27 11:04:40;;;;;;;7.38;4.05;;;205.40;1612.80;;;;;;5073911;28;20063;-61
2020/12/27 11:07:06;;;;;;;6.70;3.63;;;205.50;1587.20;;;;;;5072881;28;20041;-61
2020/12/27 11:09:32;;;;;;;8.48;4.05;;;205.40;1587.20;;;;;;5077816;28;20028;-61
2020/12/27 11:11:57;;;;;;;8.13;4.90;;;205.50;1587.20;;;;;;5073681;28;20107;-62
2020/12/27 11:14:23;;;;;;;6.82;4.40;;;205.20;1638.40;;;;;;5073889;28;20062;-62
2020/12/27 11:16:49;;;;;;;6.57;3.47;;;205.20;1612.80;;;;;;5073520;28;20498;-61
2020/12/27 11:19:15;;;;;;;4.20;2.65;;;205.30;1612.80;;;;;;5073612;28;20414;-61
2020/12/27 11:21:47;;;;;;;6.53;3.25;;;205.40;1587.20;;;;;;5072915;28;20032;-62
2020/12/27 11:24:14;;;;;;;5.30;3.10;;;205.70;1587.20;;;;;;5073604;28;20033;-61
2020/12/27 11:26:39;;;;;;;6.43;3.83;;;205.60;1561.60;;;;;;5073003;28;20036;-61
2020/12/27 11:29:05;;;;;;;7.53;4.05;;;205.40;1587.20;;;;;;5073571;28;20029;-62
2020/12/27 11:31:31;;;;;;;6.78;3.13;;;205.50;1612.80;;;;;;5073417;28;20025;-62
2020/12/27 11:33:56;;;;;;;5.00;2.60;;;205.50;1561.60;;;;;;5072896;28;20405;-62
2020/12/27 11:36:22;;;;;;;6.80;2.97;;;205.50;1561.60;;;;;;5073217;28;20387;-62
2020/12/27 11:38:48;;;;;;;4.60;2.83;;;205.20;1587.20;;;;;;5072967;28;20362;-62
2020/12/27 11:41:14;;;;;;;3.63;2.30;;;205.30;1587.20;;;;;;5073259;28;20035;-62
2020/12/27 11:43:40;;;;;;;5.28;2.78;;;205.40;1587.20;;;;;;5072880;28;20112;-61
2020/12/27 11:46:06;;;;;;;5.95;3.70;;;205.10;1612.80;;;;;;5072925;28;20103;-60
2020/12/27 11:48:32;;;;;;;6.80;3.28;;;205.30;1587.20;;;;;;5072698;28;20024;-61
2020/12/27 11:50:57;;;;;;;322.33;156.68;;;205.30;1587.20;;;;;;5073410;28;20028;-60
2020/12/27 11:53:23;;;;;;;36.47;22.20;;;205.40;1612.80;;;;;;5073308;28;20028;-61
2020/12/27 11:55:49;;;;;;;20.23;18.40;;;205.40;1612.80;;;;;;5073175;28;20033;-61
2020/12/27 11:58:15;;;;;;;8.95;7.97;;;205.60;1587.20;;;;;;5073200;28;20486;-61
2020/12/27 12:00:41;;;;;;;7.55;5.00;;;205.60;1587.20;;;;;;5073704;28;20073;-61
2020/12/27 12:03:07;;;;;;;6.65;4.03;;;205.60;1587.20;;;;;;5073077;28;20032;-61
2020/12/27 12:05:32;;;;;;;6.97;4.13;;;205.60;1561.60;;;;;;5072847;28;20037;-61
2020/12/27 12:07:58;;;;;;;7.55;5.18;;;205.70;1561.60;;;;;;5071314;28;20028;-61
2020/12/27 12:10:24;;;;;;;6.50;4.55;;;205.70;1561.60;;;;;;5073325;28;20032;-61
2020/12/27 12:12:49;;;;;;;6.53;3.97;;;230.40;1561.60;;;;;;5072873;28;20032;-61